sensor_id;sensor_type;location;lat;lon;timestamp;P1;durP1;ratioP1;P2;durP2;ratioP2
77838;SDS011;67034;43.226;27.932;2023-04-19T00:01:35;8.05;;;4.32;;
77838;SDS011;67034;43.226;27.932;2023-04-19T00:04:02;8.48;;;4.22;;
77838;SDS011;67034;43.226;27.932;2023-04-19T00:06:28;8.13;;;3.85;;
77838;SDS011;67034;43.226;27.932;2023-04-19T00:08:54;6.18;;;4.43;;
77838;SDS011;67034;43.226;27.932;2023-04-19T00:11:20;6.18;;;4.30;;
77838;SDS011;67034;43.226;27.932;2023-04-19T00:13:46;6.47;;;3.85;;
77838;SDS011;67034;43.226;27.932;2023-04-19T00:16:13;6.50;;;4.03;;
77838;SDS011;67034;43.226;27.932;2023-04-19T00:18:39;4.40;;;3.42;;
77838;SDS011;67034;43.226;27.932;2023-04-19T00:21:06;9.93;;;4.82;;
77838;SDS011;67034;43.226;27.932;2023-04-19T00:23:32;7.13;;;4.40;;
77838;SDS011;67034;43.226;27.932;2023-04-19T00:25:57;7.07;;;4.07;;
77838;SDS011;67034;43.226;27.932;2023-04-19T00:28:23;7.30;;;4.50;;
77838;SDS011;67034;43.226;27.932;2023-04-19T00:30:49;7.53;;;4.47;;
77838;SDS011;67034;43.226;27.932;2023-04-19T00:33:15;8.38;;;4.82;;
77838;SDS011;67034;43.226;27.932;2023-04-19T00:35:41;7.22;;;4.72;;
77838;SDS011;67034;43.226;27.932;2023-04-19T00:38:08;5.70;;;3.95;;
77838;SDS011;67034;43.226;27.932;2023-04-19T00:40:34;8.18;;;4.40;;
77838;SDS011;67034;43.226;27.932;2023-04-19T00:43:00;7.60;;;4.63;;
77838;SDS011;67034;43.226;27.932;2023-04-19T00:45:26;9.07;;;6.40;;
77838;SDS011;67034;43.226;27.932;2023-04-19T00:47:52;9.05;;;5.30;;
77838;SDS011;67034;43.226;27.932;2023-04-19T00:50:17;10.80;;;5.07;;
77838;SDS011;67034;43.226;27.932;2023-04-19T00:52:43;8.48;;;5.38;;
77838;SDS011;67034;43.226;27.932;2023-04-19T00:55:12;10.25;;;5.20;;
77838;SDS011;67034;43.226;27.932;2023-04-19T00:57:38;10.10;;;5.60;;
77838;SDS011;67034;43.226;27.932;2023-04-19T01:00:05;8.50;;;5.40;;
77838;SDS011;67034;43.226;27.932;2023-04-19T01:02:33;13.38;;;5.82;;
77838;SDS011;67034;43.226;27.932;2023-04-19T01:05:00;9.35;;;6.63;;
77838;SDS011;67034;43.226;27.932;2023-04-19T01:07:26;9.77;;;5.88;;
77838;SDS011;67034;43.226;27.932;2023-04-19T01:09:52;10.25;;;6.47;;
77838;SDS011;67034;43.226;27.932;2023-04-19T01:12:19;12.40;;;6.93;;
77838;SDS011;67034;43.226;27.932;2023-04-19T01:14:45;12.13;;;7.03;;
77838;SDS011;67034;43.226;27.932;2023-04-19T01:17:11;10.05;;;6.22;;
77838;SDS011;67034;43.226;27.932;2023-04-19T01:19:40;11.98;;;7.20;;
77838;SDS011;67034;43.226;27.932;2023-04-19T01:22:06;13.25;;;6.60;;
77838;SDS011;67034;43.226;27.932;2023-04-19T01:24:33;14.32;;;7.18;;
77838;SDS011;67034;43.226;27.932;2023-04-19T01:26:59;11.85;;;6.82;;
77838;SDS011;67034;43.226;27.932;2023-04-19T01:29:26;9.73;;;6.80;;
77838;SDS011;67034;43.226;27.932;2023-04-19T01:31:52;15.77;;;6.90;;
77838;SDS011;67034;43.226;27.932;2023-04-19T01:34:18;10.80;;;6.85;;
77838;SDS011;67034;43.226;27.932;2023-04-19T01:36:43;12.68;;;7.50;;
77838;SDS011;67034;43.226;27.932;2023-04-19T01:39:09;12.88;;;6.72;;
77838;SDS011;67034;43.226;27.932;2023-04-19T01:41:36;17.42;;;8.73;;
77838;SDS011;67034;43.226;27.932;2023-04-19T01:44:02;13.98;;;8.32;;
77838;SDS011;67034;43.226;27.932;2023-04-19T01:46:28;13.32;;;7.88;;
77838;SDS011;67034;43.226;27.932;2023-04-19T01:48:54;14.48;;;7.97;;
77838;SDS011;67034;43.226;27.932;2023-04-19T01:51:19;13.75;;;7.90;;
77838;SDS011;67034;43.226;27.932;2023-04-19T01:53:46;13.05;;;7.78;;
77838;SDS011;67034;43.226;27.932;2023-04-19T01:56:16;12.35;;;7.47;;
77838;SDS011;67034;43.226;27.932;2023-04-19T01:58:43;16.77;;;8.82;;
77838;SDS011;67034;43.226;27.932;2023-04-19T02:01:09;13.07;;;7.55;;
77838;SDS011;67034;43.226;27.932;2023-04-19T02:03:36;14.05;;;8.25;;
77838;SDS011;67034;43.226;27.932;2023-04-19T02:06:02;12.48;;;8.73;;
77838;SDS011;67034;43.226;27.932;2023-04-19T02:08:28;12.10;;;7.30;;
77838;SDS011;67034;43.226;27.932;2023-04-19T02:10:53;12.93;;;8.60;;
77838;SDS011;67034;43.226;27.932;2023-04-19T02:13:19;16.48;;;10.48;;
77838;SDS011;67034;43.226;27.932;2023-04-19T02:15:47;12.98;;;8.52;;
77838;SDS011;67034;43.226;27.932;2023-04-19T02:18:13;15.85;;;8.30;;
77838;SDS011;67034;43.226;27.932;2023-04-19T02:20:39;15.18;;;8.85;;
77838;SDS011;67034;43.226;27.932;2023-04-19T02:23:04;12.55;;;7.78;;
77838;SDS011;67034;43.226;27.932;2023-04-19T02:25:30;11.82;;;7.60;;
77838;SDS011;67034;43.226;27.932;2023-04-19T02:27:56;13.65;;;7.80;;
77838;SDS011;67034;43.226;27.932;2023-04-19T02:30:21;10.45;;;7.18;;
77838;SDS011;67034;43.226;27.932;2023-04-19T02:32:48;14.40;;;6.88;;
77838;SDS011;67034;43.226;27.932;2023-04-19T02:35:14;13.13;;;8.20;;
77838;SDS011;67034;43.226;27.932;2023-04-19T02:37:41;12.85;;;7.80;;
77838;SDS011;67034;43.226;27.932;2023-04-19T02:40:07;16.30;;;8.00;;
77838;SDS011;67034;43.226;27.932;2023-04-19T02:42:33;10.18;;;8.05;;
77838;SDS011;67034;43.226;27.932;2023-04-19T02:44:59;14.93;;;8.95;;
77838;SDS011;67034;43.226;27.932;2023-04-19T02:47:24;18.73;;;10.40;;
77838;SDS011;67034;43.226;27.932;2023-04-19T02:49:52;13.68;;;8.27;;
77838;SDS011;67034;43.226;27.932;2023-04-19T02:52:17;13.65;;;8.70;;
77838;SDS011;67034;43.226;27.932;2023-04-19T02:54:43;12.30;;;7.32;;
77838;SDS011;67034;43.226;27.932;2023-04-19T02:57:09;12.65;;;7.93;;
77838;SDS011;67034;43.226;27.932;2023-04-19T02:59:34;10.45;;;7.10;;
77838;SDS011;67034;43.226;27.932;2023-04-19T03:02:00;13.40;;;8.38;;
77838;SDS011;67034;43.226;27.932;2023-04-19T03:04:26;9.82;;;6.65;;
77838;SDS011;67034;43.226;27.932;2023-04-19T03:06:54;10.75;;;6.97;;
77838;SDS011;67034;43.226;27.932;2023-04-19T03:09:20;14.02;;;7.57;;
77838;SDS011;67034;43.226;27.932;2023-04-19T03:11:45;16.77;;;7.10;;
77838;SDS011;67034;43.226;27.932;2023-04-19T03:14:11;10.32;;;7.00;;
77838;SDS011;67034;43.226;27.932;2023-04-19T03:16:37;17.40;;;7.93;;
77838;SDS011;67034;43.226;27.932;2023-04-19T03:19:02;12.75;;;6.85;;
77838;SDS011;67034;43.226;27.932;2023-04-19T03:21:28;12.88;;;7.15;;
77838;SDS011;67034;43.226;27.932;2023-04-19T03:23:55;12.43;;;6.95;;
77838;SDS011;67034;43.226;27.932;2023-04-19T03:26:21;13.95;;;8.48;;
77838;SDS011;67034;43.226;27.932;2023-04-19T03:28:47;10.50;;;7.25;;
77838;SDS011;67034;43.226;27.932;2023-04-19T03:31:12;10.82;;;6.53;;
77838;SDS011;67034;43.226;27.932;2023-04-19T03:33:38;12.50;;;7.68;;
77838;SDS011;67034;43.226;27.932;2023-04-19T03:36:04;15.13;;;7.95;;
77838;SDS011;67034;43.226;27.932;2023-04-19T03:38:31;13.05;;;7.47;;
77838;SDS011;67034;43.226;27.932;2023-04-19T03:40:58;11.55;;;7.57;;
77838;SDS011;67034;43.226;27.932;2023-04-19T03:43:24;9.88;;;6.60;;
77838;SDS011;67034;43.226;27.932;2023-04-19T03:45:49;10.38;;;6.97;;
77838;SDS011;67034;43.226;27.932;2023-04-19T03:48:16;11.27;;;6.20;;
77838;SDS011;67034;43.226;27.932;2023-04-19T03:50:41;9.88;;;5.80;;
77838;SDS011;67034;43.226;27.932;2023-04-19T03:53:07;11.57;;;7.63;;
77838;SDS011;67034;43.226;27.932;2023-04-19T03:55:33;10.43;;;6.95;;
77838;SDS011;67034;43.226;27.932;2023-04-19T03:58:00;9.38;;;6.75;;
77838;SDS011;67034;43.226;27.932;2023-04-19T04:00:26;12.00;;;6.75;;
77838;SDS011;67034;43.226;27.932;2023-04-19T04:02:51;11.73;;;6.93;;
77838;SDS011;67034;43.226;27.932;2023-04-19T04:05:17;12.25;;;6.57;;
77838;SDS011;67034;43.226;27.932;2023-04-19T04:07:43;9.90;;;6.38;;
77838;SDS011;67034;43.226;27.932;2023-04-19T04:10:09;9.80;;;6.88;;
77838;SDS011;67034;43.226;27.932;2023-04-19T04:12:34;12.82;;;6.47;;
77838;SDS011;67034;43.226;27.932;2023-04-19T04:15:02;9.75;;;6.05;;
77838;SDS011;67034;43.226;27.932;2023-04-19T04:17:28;9.55;;;6.55;;
77838;SDS011;67034;43.226;27.932;2023-04-19T04:19:53;10.25;;;5.25;;
77838;SDS011;67034;43.226;27.932;2023-04-19T04:22:19;8.38;;;5.75;;
77838;SDS011;67034;43.226;27.932;2023-04-19T04:24:45;10.18;;;6.63;;
77838;SDS011;67034;43.226;27.932;2023-04-19T04:27:11;9.00;;;5.80;;
77838;SDS011;67034;43.226;27.932;2023-04-19T04:29:37;9.90;;;6.25;;
77838;SDS011;67034;43.226;27.932;2023-04-19T04:32:05;10.60;;;5.72;;
77838;SDS011;67034;43.226;27.932;2023-04-19T04:34:32;8.95;;;5.78;;
77838;SDS011;67034;43.226;27.932;2023-04-19T04:36:58;9.18;;;6.00;;
77838;SDS011;67034;43.226;27.932;2023-04-19T04:39:24;9.18;;;5.72;;
77838;SDS011;67034;43.226;27.932;2023-04-19T04:41:50;11.15;;;5.78;;
77838;SDS011;67034;43.226;27.932;2023-04-19T04:44:17;9.80;;;5.80;;
77838;SDS011;67034;43.226;27.932;2023-04-19T04:46:44;11.05;;;5.95;;
77838;SDS011;67034;43.226;27.932;2023-04-19T04:49:11;9.73;;;6.22;;
77838;SDS011;67034;43.226;27.932;2023-04-19T04:51:37;12.23;;;5.47;;
77838;SDS011;67034;43.226;27.932;2023-04-19T04:54:03;8.77;;;6.05;;
77838;SDS011;67034;43.226;27.932;2023-04-19T04:56:29;9.43;;;5.65;;
77838;SDS011;67034;43.226;27.932;2023-04-19T04:58:55;8.20;;;5.47;;
77838;SDS011;67034;43.226;27.932;2023-04-19T05:01:21;8.25;;;5.70;;
77838;SDS011;67034;43.226;27.932;2023-04-19T05:03:48;8.70;;;5.18;;
77838;SDS011;67034;43.226;27.932;2023-04-19T05:06:15;9.45;;;6.90;;
77838;SDS011;67034;43.226;27.932;2023-04-19T05:08:41;8.27;;;5.95;;
77838;SDS011;67034;43.226;27.932;2023-04-19T05:11:06;9.07;;;5.90;;
77838;SDS011;67034;43.226;27.932;2023-04-19T05:13:33;6.97;;;4.50;;
77838;SDS011;67034;43.226;27.932;2023-04-19T05:15:58;6.93;;;4.35;;
77838;SDS011;67034;43.226;27.932;2023-04-19T05:18:24;5.55;;;4.65;;
77838;SDS011;67034;43.226;27.932;2023-04-19T05:20:50;6.63;;;4.32;;
77838;SDS011;67034;43.226;27.932;2023-04-19T05:23:17;7.20;;;4.70;;
77838;SDS011;67034;43.226;27.932;2023-04-19T05:25:42;6.50;;;3.85;;
77838;SDS011;67034;43.226;27.932;2023-04-19T05:28:08;7.68;;;4.05;;
77838;SDS011;67034;43.226;27.932;2023-04-19T05:30:34;7.15;;;4.10;;
77838;SDS011;67034;43.226;27.932;2023-04-19T05:33:00;4.75;;;3.05;;
77838;SDS011;67034;43.226;27.932;2023-04-19T05:35:25;7.50;;;3.65;;
77838;SDS011;67034;43.226;27.932;2023-04-19T05:37:51;6.35;;;3.60;;
77838;SDS011;67034;43.226;27.932;2023-04-19T05:40:18;5.03;;;3.50;;
77838;SDS011;67034;43.226;27.932;2023-04-19T05:42:44;5.10;;;3.85;;
77838;SDS011;67034;43.226;27.932;2023-04-19T05:45:10;6.90;;;4.22;;
77838;SDS011;67034;43.226;27.932;2023-04-19T05:47:36;5.90;;;3.92;;
77838;SDS011;67034;43.226;27.932;2023-04-19T05:50:01;5.95;;;4.15;;
77838;SDS011;67034;43.226;27.932;2023-04-19T05:52:27;6.72;;;4.60;;
77838;SDS011;67034;43.226;27.932;2023-04-19T05:54:53;7.35;;;4.50;;
77838;SDS011;67034;43.226;27.932;2023-04-19T05:57:20;7.22;;;4.70;;
77838;SDS011;67034;43.226;27.932;2023-04-19T05:59:46;5.45;;;3.90;;
77838;SDS011;67034;43.226;27.932;2023-04-19T06:02:12;5.47;;;4.03;;
77838;SDS011;67034;43.226;27.932;2023-04-19T06:04:38;5.57;;;3.88;;
77838;SDS011;67034;43.226;27.932;2023-04-19T06:07:03;4.90;;;3.90;;
77838;SDS011;67034;43.226;27.932;2023-04-19T06:09:29;8.65;;;4.47;;
77838;SDS011;67034;43.226;27.932;2023-04-19T06:11:55;5.05;;;4.20;;
77838;SDS011;67034;43.226;27.932;2023-04-19T06:14:22;6.85;;;4.35;;
77838;SDS011;67034;43.226;27.932;2023-04-19T06:16:48;5.28;;;3.55;;
77838;SDS011;67034;43.226;27.932;2023-04-19T06:19:13;5.47;;;4.32;;
77838;SDS011;67034;43.226;27.932;2023-04-19T06:21:40;11.77;;;5.97;;
77838;SDS011;67034;43.226;27.932;2023-04-19T06:24:05;6.07;;;4.20;;
77838;SDS011;67034;43.226;27.932;2023-04-19T06:26:32;6.72;;;4.05;;
77838;SDS011;67034;43.226;27.932;2023-04-19T06:28:57;6.95;;;5.25;;
77838;SDS011;67034;43.226;27.932;2023-04-19T06:31:24;5.28;;;4.40;;
77838;SDS011;67034;43.226;27.932;2023-04-19T06:33:50;11.40;;;5.95;;
77838;SDS011;67034;43.226;27.932;2023-04-19T06:36:16;5.18;;;3.60;;
77838;SDS011;67034;43.226;27.932;2023-04-19T06:38:41;6.43;;;4.65;;
77838;SDS011;67034;43.226;27.932;2023-04-19T06:41:08;8.55;;;4.97;;
77838;SDS011;67034;43.226;27.932;2023-04-19T06:43:34;7.50;;;4.88;;
77838;SDS011;67034;43.226;27.932;2023-04-19T06:46:00;7.65;;;4.53;;
77838;SDS011;67034;43.226;27.932;2023-04-19T06:48:28;7.82;;;5.45;;
77838;SDS011;67034;43.226;27.932;2023-04-19T06:50:55;11.40;;;6.00;;
77838;SDS011;67034;43.226;27.932;2023-04-19T06:53:20;8.57;;;5.55;;
77838;SDS011;67034;43.226;27.932;2023-04-19T06:55:46;11.15;;;6.65;;
77838;SDS011;67034;43.226;27.932;2023-04-19T06:58:12;7.20;;;4.97;;
77838;SDS011;67034;43.226;27.932;2023-04-19T07:00:38;7.53;;;5.63;;
77838;SDS011;67034;43.226;27.932;2023-04-19T07:03:03;8.10;;;5.60;;
77838;SDS011;67034;43.226;27.932;2023-04-19T07:05:30;7.20;;;5.38;;
77838;SDS011;67034;43.226;27.932;2023-04-19T07:07:56;9.55;;;6.93;;
77838;SDS011;67034;43.226;27.932;2023-04-19T07:10:22;8.32;;;6.15;;
77838;SDS011;67034;43.226;27.932;2023-04-19T07:15:13;6.93;;;4.75;;
77838;SDS011;67034;43.226;27.932;2023-04-19T07:17:39;6.55;;;4.53;;
77838;SDS011;67034;43.226;27.932;2023-04-19T07:20:05;8.20;;;5.32;;
77838;SDS011;67034;43.226;27.932;2023-04-19T07:22:33;7.63;;;4.45;;
77838;SDS011;67034;43.226;27.932;2023-04-19T07:24:59;5.88;;;3.97;;
77838;SDS011;67034;43.226;27.932;2023-04-19T07:27:25;5.85;;;4.22;;
77838;SDS011;67034;43.226;27.932;2023-04-19T07:29:51;6.55;;;3.72;;
77838;SDS011;67034;43.226;27.932;2023-04-19T07:32:17;4.80;;;3.65;;
77838;SDS011;67034;43.226;27.932;2023-04-19T07:34:43;4.38;;;2.67;;
77838;SDS011;67034;43.226;27.932;2023-04-19T07:37:10;5.68;;;4.07;;
77838;SDS011;67034;43.226;27.932;2023-04-19T07:39:38;5.43;;;4.28;;
77838;SDS011;67034;43.226;27.932;2023-04-19T07:42:03;5.30;;;3.93;;
77838;SDS011;67034;43.226;27.932;2023-04-19T07:44:29;5.43;;;3.92;;
77838;SDS011;67034;43.226;27.932;2023-04-19T07:46:55;3.70;;;2.70;;
77838;SDS011;67034;43.226;27.932;2023-04-19T07:49:21;4.50;;;2.97;;
77838;SDS011;67034;43.226;27.932;2023-04-19T07:51:46;7.35;;;3.55;;
77838;SDS011;67034;43.226;27.932;2023-04-19T07:54:12;5.60;;;4.13;;
77838;SDS011;67034;43.226;27.932;2023-04-19T07:56:41;7.78;;;4.72;;
77838;SDS011;67034;43.226;27.932;2023-04-19T07:59:07;8.27;;;5.70;;
77838;SDS011;67034;43.226;27.932;2023-04-19T08:01:33;9.35;;;6.72;;
77838;SDS011;67034;43.226;27.932;2023-04-19T08:03:58;7.50;;;5.28;;
77838;SDS011;67034;43.226;27.932;2023-04-19T08:06:24;7.55;;;4.90;;
77838;SDS011;67034;43.226;27.932;2023-04-19T08:08:51;6.10;;;3.95;;
77838;SDS011;67034;43.226;27.932;2023-04-19T08:11:16;4.72;;;3.30;;
77838;SDS011;67034;43.226;27.932;2023-04-19T08:13:44;4.88;;;3.42;;
77838;SDS011;67034;43.226;27.932;2023-04-19T08:16:09;6.70;;;3.13;;
77838;SDS011;67034;43.226;27.932;2023-04-19T08:18:35;4.63;;;3.20;;
77838;SDS011;67034;43.226;27.932;2023-04-19T08:21:01;4.65;;;3.00;;
77838;SDS011;67034;43.226;27.932;2023-04-19T08:23:26;5.22;;;3.70;;
77838;SDS011;67034;43.226;27.932;2023-04-19T08:25:52;4.72;;;3.03;;
77838;SDS011;67034;43.226;27.932;2023-04-19T08:28:18;6.15;;;2.80;;
77838;SDS011;67034;43.226;27.932;2023-04-19T08:30:45;3.55;;;2.72;;
77838;SDS011;67034;43.226;27.932;2023-04-19T08:33:11;3.83;;;2.80;;
77838;SDS011;67034;43.226;27.932;2023-04-19T08:35:37;6.28;;;2.90;;
77838;SDS011;67034;43.226;27.932;2023-04-19T08:38:05;3.30;;;2.30;;
77838;SDS011;67034;43.226;27.932;2023-04-19T08:40:30;4.15;;;2.20;;
77838;SDS011;67034;43.226;27.932;2023-04-19T08:42:57;3.10;;;2.53;;
77838;SDS011;67034;43.226;27.932;2023-04-19T08:45:23;4.75;;;2.40;;
77838;SDS011;67034;43.226;27.932;2023-04-19T08:47:53;7.38;;;4.03;;
77838;SDS011;67034;43.226;27.932;2023-04-19T08:50:21;4.40;;;3.20;;
77838;SDS011;67034;43.226;27.932;2023-04-19T08:52:47;2.75;;;2.00;;
77838;SDS011;67034;43.226;27.932;2023-04-19T08:55:13;2.22;;;1.60;;
77838;SDS011;67034;43.226;27.932;2023-04-19T08:57:40;2.20;;;1.50;;
77838;SDS011;67034;43.226;27.932;2023-04-19T09:00:06;2.95;;;1.60;;
77838;SDS011;67034;43.226;27.932;2023-04-19T09:02:44;2.20;;;1.65;;
77838;SDS011;67034;43.226;27.932;2023-04-19T09:05:13;1.95;;;1.50;;
77838;SDS011;67034;43.226;27.932;2023-04-19T09:07:40;2.05;;;1.40;;
77838;SDS011;67034;43.226;27.932;2023-04-19T09:10:07;2.30;;;1.55;;
77838;SDS011;67034;43.226;27.932;2023-04-19T09:12:34;3.20;;;1.60;;
77838;SDS011;67034;43.226;27.932;2023-04-19T09:15:01;2.22;;;1.50;;
77838;SDS011;67034;43.226;27.932;2023-04-19T09:17:28;2.85;;;1.90;;
77838;SDS011;67034;43.226;27.932;2023-04-19T09:19:55;3.17;;;1.70;;
77838;SDS011;67034;43.226;27.932;2023-04-19T09:22:22;1.45;;;1.20;;
77838;SDS011;67034;43.226;27.932;2023-04-19T09:24:48;2.05;;;1.30;;
77838;SDS011;67034;43.226;27.932;2023-04-19T09:27:15;1.90;;;1.42;;
77838;SDS011;67034;43.226;27.932;2023-04-19T09:29:51;1.77;;;1.30;;
77838;SDS011;67034;43.226;27.932;2023-04-19T09:32:17;1.65;;;1.38;;
77838;SDS011;67034;43.226;27.932;2023-04-19T09:34:49;2.33;;;1.40;;
77838;SDS011;67034;43.226;27.932;2023-04-19T09:37:16;1.40;;;1.10;;
77838;SDS011;67034;43.226;27.932;2023-04-19T09:39:44;2.05;;;1.20;;
77838;SDS011;67034;43.226;27.932;2023-04-19T09:42:10;2.28;;;1.58;;
77838;SDS011;67034;43.226;27.932;2023-04-19T09:44:36;2.03;;;1.23;;
77838;SDS011;67034;43.226;27.932;2023-04-19T09:47:01;2.40;;;1.50;;
77838;SDS011;67034;43.226;27.932;2023-04-19T09:49:45;1.92;;;1.13;;
77838;SDS011;67034;43.226;27.932;2023-04-19T09:52:12;1.42;;;1.10;;
77838;SDS011;67034;43.226;27.932;2023-04-19T09:54:38;1.42;;;1.10;;
77838;SDS011;67034;43.226;27.932;2023-04-19T09:57:05;1.52;;;1.10;;
77838;SDS011;67034;43.226;27.932;2023-04-19T09:59:31;1.45;;;0.98;;
77838;SDS011;67034;43.226;27.932;2023-04-19T10:01:57;1.42;;;1.10;;
77838;SDS011;67034;43.226;27.932;2023-04-19T10:04:24;2.10;;;1.50;;
77838;SDS011;67034;43.226;27.932;2023-04-19T10:06:51;1.83;;;1.23;;
77838;SDS011;67034;43.226;27.932;2023-04-19T10:09:18;1.65;;;0.85;;
77838;SDS011;67034;43.226;27.932;2023-04-19T10:11:46;1.35;;;0.80;;
77838;SDS011;67034;43.226;27.932;2023-04-19T10:14:14;1.25;;;1.15;;
77838;SDS011;67034;43.226;27.932;2023-04-19T10:16:41;1.58;;;1.00;;
77838;SDS011;67034;43.226;27.932;2023-04-19T10:19:07;2.78;;;1.05;;
77838;SDS011;67034;43.226;27.932;2023-04-19T10:21:35;0.75;;;0.60;;
77838;SDS011;67034;43.226;27.932;2023-04-19T10:24:01;1.42;;;1.00;;
77838;SDS011;67034;43.226;27.932;2023-04-19T10:26:28;2.38;;;0.93;;
77838;SDS011;67034;43.226;27.932;2023-04-19T10:28:54;1.48;;;0.98;;
77838;SDS011;67034;43.226;27.932;2023-04-19T10:31:23;1.58;;;1.25;;
77838;SDS011;67034;43.226;27.932;2023-04-19T10:33:50;1.33;;;0.88;;
77838;SDS011;67034;43.226;27.932;2023-04-19T10:36:16;1.80;;;1.30;;
77838;SDS011;67034;43.226;27.932;2023-04-19T10:38:43;0.93;;;0.90;;
77838;SDS011;67034;43.226;27.932;2023-04-19T10:41:12;1.65;;;1.15;;
77838;SDS011;67034;43.226;27.932;2023-04-19T10:43:39;1.35;;;1.05;;
77838;SDS011;67034;43.226;27.932;2023-04-19T10:46:06;1.60;;;1.13;;
77838;SDS011;67034;43.226;27.932;2023-04-19T10:48:35;1.33;;;1.20;;
77838;SDS011;67034;43.226;27.932;2023-04-19T10:51:11;5.28;;;2.38;;
77838;SDS011;67034;43.226;27.932;2023-04-19T10:53:42;6.65;;;2.38;;
77838;SDS011;67034;43.226;27.932;2023-04-19T10:56:08;11.02;;;3.88;;
77838;SDS011;67034;43.226;27.932;2023-04-19T11:01:37;9.35;;;3.80;;
77838;SDS011;67034;43.226;27.932;2023-04-19T11:04:08;18.67;;;4.68;;
77838;SDS011;67034;43.226;27.932;2023-04-19T11:06:35;4.85;;;1.80;;
77838;SDS011;67034;43.226;27.932;2023-04-19T11:09:02;2.83;;;1.77;;
77838;SDS011;67034;43.226;27.932;2023-04-19T11:11:32;7.07;;;2.58;;
77838;SDS011;67034;43.226;27.932;2023-04-19T11:13:59;4.20;;;2.10;;
77838;SDS011;67034;43.226;27.932;2023-04-19T11:16:27;5.30;;;2.00;;
77838;SDS011;67034;43.226;27.932;2023-04-19T11:18:52;4.68;;;2.15;;
77838;SDS011;67034;43.226;27.932;2023-04-19T11:21:21;2.90;;;2.00;;
77838;SDS011;67034;43.226;27.932;2023-04-19T11:23:48;3.17;;;1.95;;
77838;SDS011;67034;43.226;27.932;2023-04-19T11:26:14;3.58;;;2.08;;
77838;SDS011;67034;43.226;27.932;2023-04-19T11:28:40;2.50;;;1.80;;
77838;SDS011;67034;43.226;27.932;2023-04-19T11:31:08;2.72;;;1.60;;
77838;SDS011;67034;43.226;27.932;2023-04-19T11:33:34;2.30;;;1.77;;
77838;SDS011;67034;43.226;27.932;2023-04-19T11:36:01;2.97;;;2.05;;
77838;SDS011;67034;43.226;27.932;2023-04-19T11:38:29;3.28;;;2.25;;
77838;SDS011;67034;43.226;27.932;2023-04-19T11:40:58;2.60;;;2.00;;
77838;SDS011;67034;43.226;27.932;2023-04-19T11:43:30;3.10;;;2.00;;
77838;SDS011;67034;43.226;27.932;2023-04-19T11:48:28;4.13;;;2.33;;
77838;SDS011;67034;43.226;27.932;2023-04-19T11:50:56;3.72;;;2.53;;
77838;SDS011;67034;43.226;27.932;2023-04-19T11:53:23;4.32;;;2.80;;
77838;SDS011;67034;43.226;27.932;2023-04-19T11:55:53;5.03;;;3.10;;
77838;SDS011;67034;43.226;27.932;2023-04-19T11:58:26;5.07;;;3.20;;
77838;SDS011;67034;43.226;27.932;2023-04-19T12:00:54;6.47;;;3.42;;
77838;SDS011;67034;43.226;27.932;2023-04-19T12:03:20;6.00;;;4.43;;
77838;SDS011;67034;43.226;27.932;2023-04-19T12:05:53;8.10;;;3.78;;
77838;SDS011;67034;43.226;27.932;2023-04-19T12:08:28;5.20;;;4.00;;
77838;SDS011;67034;43.226;27.932;2023-04-19T12:10:57;6.37;;;4.53;;
77838;SDS011;67034;43.226;27.932;2023-04-19T12:13:24;6.68;;;4.22;;
77838;SDS011;67034;43.226;27.932;2023-04-19T12:15:50;7.03;;;4.57;;
77838;SDS011;67034;43.226;27.932;2023-04-19T12:18:16;7.82;;;5.35;;
77838;SDS011;67034;43.226;27.932;2023-04-19T12:20:42;7.50;;;4.95;;
77838;SDS011;67034;43.226;27.932;2023-04-19T12:23:10;8.02;;;4.70;;
77838;SDS011;67034;43.226;27.932;2023-04-19T12:25:38;8.25;;;5.43;;
77838;SDS011;67034;43.226;27.932;2023-04-19T12:28:06;7.93;;;4.88;;
77838;SDS011;67034;43.226;27.932;2023-04-19T12:30:32;10.63;;;4.85;;
77838;SDS011;67034;43.226;27.932;2023-04-19T12:32:59;9.48;;;5.20;;
77838;SDS011;67034;43.226;27.932;2023-04-19T12:35:25;9.32;;;4.97;;
77838;SDS011;67034;43.226;27.932;2023-04-19T12:37:54;8.10;;;4.85;;
77838;SDS011;67034;43.226;27.932;2023-04-19T12:40:21;8.45;;;4.95;;
77838;SDS011;67034;43.226;27.932;2023-04-19T12:42:47;8.65;;;5.05;;
77838;SDS011;67034;43.226;27.932;2023-04-19T12:45:15;9.55;;;5.70;;
77838;SDS011;67034;43.226;27.932;2023-04-19T12:47:42;8.02;;;5.43;;
77838;SDS011;67034;43.226;27.932;2023-04-19T12:50:10;9.80;;;5.88;;
77838;SDS011;67034;43.226;27.932;2023-04-19T12:52:37;7.50;;;4.93;;
77838;SDS011;67034;43.226;27.932;2023-04-19T12:55:03;7.32;;;5.15;;
77838;SDS011;67034;43.226;27.932;2023-04-19T12:57:30;7.15;;;5.10;;
77838;SDS011;67034;43.226;27.932;2023-04-19T12:59:55;7.25;;;4.78;;
77838;SDS011;67034;43.226;27.932;2023-04-19T13:02:23;7.80;;;4.60;;
77838;SDS011;67034;43.226;27.932;2023-04-19T13:04:48;7.13;;;4.15;;
77838;SDS011;67034;43.226;27.932;2023-04-19T13:07:15;5.57;;;3.95;;
77838;SDS011;67034;43.226;27.932;2023-04-19T13:09:40;6.45;;;3.85;;
77838;SDS011;67034;43.226;27.932;2023-04-19T13:12:06;4.72;;;3.60;;
77838;SDS011;67034;43.226;27.932;2023-04-19T13:14:32;5.00;;;3.70;;
77838;SDS011;67034;43.226;27.932;2023-04-19T13:16:58;4.63;;;3.60;;
77838;SDS011;67034;43.226;27.932;2023-04-19T13:19:25;6.72;;;3.80;;
77838;SDS011;67034;43.226;27.932;2023-04-19T13:21:51;5.28;;;4.00;;
77838;SDS011;67034;43.226;27.932;2023-04-19T13:24:16;5.50;;;3.70;;
77838;SDS011;67034;43.226;27.932;2023-04-19T13:26:42;9.25;;;3.83;;
77838;SDS011;67034;43.226;27.932;2023-04-19T13:29:10;5.80;;;3.55;;
77838;SDS011;67034;43.226;27.932;2023-04-19T13:31:36;4.60;;;3.13;;
77838;SDS011;67034;43.226;27.932;2023-04-19T13:34:02;5.63;;;3.35;;
77838;SDS011;67034;43.226;27.932;2023-04-19T13:36:29;5.85;;;3.40;;
77838;SDS011;67034;43.226;27.932;2023-04-19T13:38:55;5.63;;;3.40;;
77838;SDS011;67034;43.226;27.932;2023-04-19T13:41:21;5.73;;;3.07;;
77838;SDS011;67034;43.226;27.932;2023-04-19T13:43:47;6.05;;;3.17;;
77838;SDS011;67034;43.226;27.932;2023-04-19T13:46:12;6.03;;;3.70;;
77838;SDS011;67034;43.226;27.932;2023-04-19T13:48:38;4.70;;;3.10;;
77838;SDS011;67034;43.226;27.932;2023-04-19T13:51:04;3.35;;;2.58;;
77838;SDS011;67034;43.226;27.932;2023-04-19T13:53:32;4.00;;;2.60;;
77838;SDS011;67034;43.226;27.932;2023-04-19T13:55:58;5.13;;;3.17;;
77838;SDS011;67034;43.226;27.932;2023-04-19T13:58:23;3.17;;;2.40;;
77838;SDS011;67034;43.226;27.932;2023-04-19T14:00:49;6.03;;;2.70;;
77838;SDS011;67034;43.226;27.932;2023-04-19T14:03:15;3.10;;;2.20;;
77838;SDS011;67034;43.226;27.932;2023-04-19T14:05:41;3.77;;;2.43;;
77838;SDS011;67034;43.226;27.932;2023-04-19T14:08:07;4.65;;;2.75;;
77838;SDS011;67034;43.226;27.932;2023-04-19T14:10:34;4.35;;;2.90;;
77838;SDS011;67034;43.226;27.932;2023-04-19T14:13:00;4.45;;;3.35;;
77838;SDS011;67034;43.226;27.932;2023-04-19T14:15:26;5.68;;;2.70;;
77838;SDS011;67034;43.226;27.932;2023-04-19T14:17:52;4.07;;;2.47;;
77838;SDS011;67034;43.226;27.932;2023-04-19T14:20:18;5.05;;;2.90;;
77838;SDS011;67034;43.226;27.932;2023-04-19T14:22:44;3.83;;;2.60;;
77838;SDS011;67034;43.226;27.932;2023-04-19T14:25:10;5.72;;;3.42;;
77838;SDS011;67034;43.226;27.932;2023-04-19T14:27:40;4.40;;;2.92;;
77838;SDS011;67034;43.226;27.932;2023-04-19T14:30:06;5.90;;;3.17;;
77838;SDS011;67034;43.226;27.932;2023-04-19T14:32:33;5.95;;;3.15;;
77838;SDS011;67034;43.226;27.932;2023-04-19T14:34:58;4.35;;;3.30;;